Time;durP1;ratioP1;P1;durP2;ratioP2;P2;SDS_P1;SDS_P2;PMS_P1;PMS_P2;Temp;Humidity;BMP_temperature;BMP_pressure;BME280_temperature;BME280_humidity;BME280_pressure;Samples;Min_cycle;Max_cycle;Signal;HPM_P1;HPM_P2
2022/11/17 00:00:06;;;;;;;10.70;9.60;;;8.20;1.00;;;;;;5049335;28;20246;-65
2022/11/17 00:02:31;;;;;;;10.93;9.40;;;8.30;99.90;;;;;;5048963;28;20400;-66
2022/11/17 00:04:57;;;;;;;18.43;9.83;;;8.20;99.90;;;;;;5049347;28;20529;-66
2022/11/17 00:07:23;;;;;;;14.70;10.73;;;7.90;1.00;;;;;;5048853;28;20213;-65
2022/11/17 00:09:48;;;;;;;12.57;11.23;;;7.80;44.40;;;;;;5049476;28;20636;-66
2022/11/17 00:14:58;;;;;;;12.30;10.63;;;8.00;21.70;;;;;;5049513;28;20612;-66
2022/11/17 00:17:24;;;;;;;12.53;10.17;;;7.80;99.90;;;;;;5049335;28;20409;-66
2022/11/17 00:22:34;;;;;;;14.13;10.77;;;7.90;99.90;;;;;;5048823;28;20185;-65
2022/11/17 00:24:59;;;;;;;15.37;10.63;;;7.70;99.90;;;;;;5050159;28;20528;-65
2022/11/17 00:27:25;;;;;;;18.90;11.53;;;7.60;99.90;;;;;;5052965;28;20171;-64
2022/11/17 00:29:51;;;;;;;18.63;11.30;;;7.60;1.00;;;;;;5052976;28;20167;-66
2022/11/17 00:35:03;;;;;;;15.07;9.80;;;7.80;99.90;;;;;;5053887;28;20229;-66
2022/11/17 00:37:32;;;;;;;11.73;10.00;;;8.00;99.90;;;;;;5052731;28;20636;-66
2022/11/17 00:39:58;;;;;;;10.43;9.33;;;7.90;99.90;;;;;;5053165;28;20503;-65
2022/11/17 00:42:23;;;;;;;17.97;10.63;;;7.50;1.00;;;;;;5051733;28;20433;-65
2022/11/17 00:44:49;;;;;;;10.73;9.53;;;7.60;1.00;;;;;;5053512;28;20195;-65
2022/11/17 00:47:14;;;;;;;10.27;8.90;;;7.90;1.00;;;;;;5053813;28;20199;-66
2022/11/17 00:49:40;;;;;;;10.53;9.43;;;7.80;99.90;;;;;;5053753;28;20171;-65
2022/11/17 00:52:06;;;;;;;10.47;9.40;;;7.50;1.00;;;;;;5052824;28;20242;-65
2022/11/17 00:54:31;;;;;;;11.43;8.93;;;7.60;1.00;;;;;;5052824;28;20220;-65
2022/11/17 00:56:57;;;;;;;11.97;9.13;;;7.70;1.00;;;;;;5052498;28;20183;-65
2022/11/17 00:59:23;;;;;;;13.87;9.00;;;7.90;1.00;;;;;;5052584;28;20237;-65
2022/11/17 01:01:49;;;;;;;12.03;8.10;;;7.90;99.90;;;;;;5068813;28;20178;-65
2022/11/17 01:04:15;;;;;;;10.33;9.10;;;7.90;99.90;;;;;;5072288;28;20190;-64
2022/11/17 01:06:46;;;;;;;9.10;8.27;;;8.10;99.90;;;;;;5072091;28;20263;-64
2022/11/17 01:09:16;;;;;;;11.73;9.27;;;8.10;99.90;;;;;;5072567;28;20413;-65
2022/11/17 01:11:42;;;;;;;13.60;12.43;;;8.20;36.20;;;;;;5071585;28;20408;-65
2022/11/17 01:14:12;;;;;;;9.83;8.20;;;8.20;1.00;;;;;;5072478;28;20433;-66
2022/11/17 01:16:38;;;;;;;10.30;8.40;;;8.20;1.00;;;;;;5077696;28;20446;-64
2022/11/17 01:19:04;;;;;;;9.43;8.20;;;8.20;30.80;;;;;;5072559;28;20528;-65
2022/11/17 01:21:31;;;;;;;15.73;8.80;;;8.20;1.00;;;;;;5071155;28;20198;-65
2022/11/17 01:23:59;;;;;;;9.77;8.63;;;8.20;1.00;;;;;;5072242;28;20989;-64
2022/11/17 01:26:27;;;;;;;10.67;7.30;;;8.20;1.70;;;;;;5072111;28;20427;-65
2022/11/17 01:28:54;;;;;;;8.60;7.70;;;8.30;1.00;;;;;;5072114;28;20413;-66
2022/11/17 01:31:25;;;;;;;10.10;7.97;;;8.20;21.50;;;;;;5071064;28;20904;-65
2022/11/17 01:33:51;;;;;;;9.77;8.80;;;8.30;26.50;;;;;;5081298;22;20442;-65
2022/11/17 01:36:23;;;;;;;7.77;7.03;;;8.50;1.00;;;;;;5031188;28;20414;-64
2022/11/17 01:38:49;;;;;;;9.10;8.20;;;8.50;1.00;;;;;;5031389;28;20462;-63
2022/11/17 01:41:23;;;;;;;8.17;7.37;;;8.50;1.00;;;;;;5030721;28;20902;-63
2022/11/17 01:43:54;;;;;;;8.30;7.50;;;8.40;1.00;;;;;;5034044;28;20217;-64
2022/11/17 01:46:36;;;;;;;9.10;8.30;;;8.30;1.00;;;;;;5049734;28;20410;-65
2022/11/17 01:49:09;;;;;;;8.53;7.50;;;7.80;99.90;;;;;;5051451;28;20444;-65
2022/11/17 01:51:38;;;;;;;9.17;8.40;;;7.90;1.00;;;;;;5049776;28;20444;-65
2022/11/17 01:54:06;;;;;;;8.23;7.43;;;7.80;1.00;;;;;;5051063;28;20429;-64
2022/11/17 01:56:38;;;;;;;8.23;7.37;;;7.40;1.00;;;;;;5051124;28;20431;-64
2022/11/17 01:59:34;;;;;;;8.63;7.73;;;7.20;1.00;;;;;;5051387;28;20460;-65
2022/11/17 02:02:00;;;;;;;8.80;8.00;;;7.50;1.00;;;;;;5050337;28;20436;-64
2022/11/17 02:04:33;;;;;;;9.00;8.20;;;7.60;1.00;;;;;;5051103;28;20437;-63
2022/11/17 02:07:13;;;;;;;8.53;7.73;;;7.50;1.00;;;;;;5050417;28;20186;-66
2022/11/17 02:09:40;;;;;;;10.17;8.73;;;7.30;1.00;;;;;;5050911;28;20417;-65
2022/11/17 02:12:12;;;;;;;9.00;8.00;;;7.70;1.00;;;;;;5049876;28;20774;-65
2022/11/17 02:14:38;;;;;;;9.47;8.03;;;7.90;1.00;;;;;;5050874;28;20499;-63
2022/11/17 02:17:06;;;;;;;8.77;7.83;;;8.00;1.00;;;;;;5050550;28;20779;-64
2022/11/17 02:19:37;;;;;;;8.60;7.77;;;8.10;1.00;;;;;;5050578;28;20453;-65
2022/11/17 02:22:08;;;;;;;8.27;7.07;;;8.10;99.90;;;;;;5048931;28;20814;-64
2022/11/17 02:24:37;;;;;;;8.57;7.77;;;7.90;99.90;;;;;;5050578;28;20527;-64
2022/11/17 02:27:43;;;;;;;7.83;6.97;;;7.80;1.00;;;;;;5050011;28;20492;-65
2022/11/17 02:30:15;;;;;;;8.37;7.60;;;8.00;1.00;;;;;;5050080;28;20745;-63
2022/11/17 02:32:53;;;;;;;9.57;8.77;;;8.10;99.90;;;;;;5049567;28;20762;-65
2022/11/17 02:35:24;;;;;;;9.80;8.77;;;8.20;99.90;;;;;;5050049;28;20553;-65
2022/11/17 02:38:27;;;;;;;10.00;8.70;;;7.90;99.90;;;;;;5049742;28;20542;-65
2022/11/17 02:41:04;;;;;;;9.80;8.90;;;7.60;1.00;;;;;;5049054;28;20405;-65
2022/11/17 02:46:30;;;;;;;11.00;8.70;;;7.80;1.00;;;;;;5050012;28;20429;-64
2022/11/17 02:49:03;;;;;;;10.67;9.57;;;8.10;1.00;;;;;;5049553;28;20898;-64
2022/11/17 02:51:31;;;;;;;12.43;10.03;;;8.10;1.00;;;;;;5048644;28;20930;-66
2022/11/17 02:53:58;;;;;;;12.93;10.40;;;8.20;99.90;;;;;;5049842;28;20429;-65
2022/11/17 02:56:24;;;;;;;13.33;11.10;;;8.10;99.90;;;;;;5049693;28;20432;-65
2022/11/17 02:58:54;;;;;;;12.40;11.13;;;8.20;99.90;;;;;;5049728;28;20450;-65
2022/11/17 03:01:45;;;;;;;10.27;8.90;;;8.00;99.90;;;;;;5048664;28;20167;-64
2022/11/17 03:04:29;;;;;;;11.37;9.67;;;8.00;1.00;;;;;;5050044;28;20495;-65
2022/11/17 03:07:27;;;;;;;12.60;9.30;;;8.00;1.00;;;;;;5049286;28;20405;-64
2022/11/17 03:10:07;;;;;;;16.40;8.87;;;8.00;1.00;;;;;;5049712;28;20531;-64
2022/11/17 03:12:46;;;;;;;11.17;9.20;;;7.80;1.00;;;;;;5048466;28;20492;-65
2022/11/17 03:15:23;;;;;;;10.10;8.97;;;7.50;1.00;;;;;;5049837;28;20432;-65
2022/11/17 03:17:53;;;;;;;12.27;10.17;;;7.40;1.00;;;;;;5049748;28;20405;-64
2022/11/17 03:20:24;;;;;;;9.90;8.90;;;7.30;1.00;;;;;;5049325;28;20402;-64
2022/11/17 03:23:06;;;;;;;10.97;9.23;;;7.30;1.00;;;;;;5049018;28;20920;-65
2022/11/17 03:25:36;;;;;;;8.63;7.73;;;7.20;1.00;;;;;;5049348;28;20450;-65
2022/11/17 03:28:06;;;;;;;9.83;7.90;;;7.20;1.00;;;;;;5049621;28;20410;-64
2022/11/17 03:30:35;;;;;;;10.10;7.70;;;6.80;1.00;;;;;;5049736;28;20420;-63
2022/11/17 03:33:07;;;;;;;8.57;7.57;;;7.10;1.00;;;;;;5049920;28;20447;-63
2022/11/17 03:35:36;;;;;;;8.80;7.30;;;7.30;1.00;;;;;;5049686;28;20856;-63
2022/11/17 03:38:07;;;;;;;11.70;6.73;;;7.50;1.00;;;;;;5049884;28;20394;-64
2022/11/17 03:40:35;;;;;;;8.17;7.10;;;7.60;1.00;;;;;;5049726;28;20477;-64
2022/11/17 03:43:06;;;;;;;11.37;9.00;;;7.80;1.00;;;;;;5049905;28;20421;-64
2022/11/17 03:45:38;;;;;;;10.10;9.10;;;7.90;1.00;;;;;;5049873;28;20919;-65
2022/11/17 03:48:20;;;;;;;8.13;7.30;;;7.90;1.00;;;;;;5049782;28;20402;-64
2022/11/17 03:51:05;;;;;;;9.33;8.50;;;8.00;1.00;;;;;;5049331;28;20398;-64
2022/11/17 03:53:32;;;;;;;12.70;8.33;;;8.00;1.00;;;;;;5049597;28;20771;-64
2022/11/17 03:56:15;;;;;;;10.10;8.60;;;8.00;1.00;;;;;;5049588;28;20496;-65
2022/11/17 03:58:56;;;;;;;8.30;7.50;;;8.10;1.00;;;;;;5049503;28;20476;-64
2022/11/17 04:01:25;;;;;;;8.50;7.70;;;8.10;1.00;;;;;;5052740;28;20747;-64
2022/11/17 04:03:51;;;;;;;8.70;7.80;;;8.10;1.00;;;;;;5053872;28;20421;-64
2022/11/17 04:06:16;;;;;;;9.53;8.30;;;8.20;1.00;;;;;;5053328;28;20491;-64
2022/11/17 04:08:42;;;;;;;8.93;7.40;;;8.20;1.00;;;;;;5053658;28;20167;-64
2022/11/17 04:16:36;;;;;;;10.77;9.47;;;8.10;1.00;;;;;;5053656;28;20498;-64
2022/11/17 04:19:02;;;;;;;9.57;8.67;;;8.30;1.00;;;;;;5053627;28;20453;-64
2022/11/17 04:21:28;;;;;;;9.47;8.57;;;8.40;1.00;;;;;;5052754;28;20190;-64
2022/11/17 04:23:54;;;;;;;9.70;8.63;;;8.40;1.00;;;;;;5053215;28;20635;-64
2022/11/17 04:29:04;;;;;;;10.77;9.00;;;8.20;1.00;;;;;;5053905;28;20420;-64
2022/11/17 04:31:30;;;;;;;10.60;8.60;;;8.10;1.00;;;;;;5052593;28;20414;-64
2022/11/17 04:33:58;;;;;;;8.80;7.80;;;7.80;1.00;;;;;;5053224;28;20207;-64
2022/11/17 04:36:26;;;;;;;11.20;8.90;;;7.80;1.00;;;;;;5052558;28;20408;-64
2022/11/17 04:38:54;;;;;;;13.37;8.33;;;7.70;1.00;;;;;;5053119;28;20556;-65
2022/11/17 04:44:07;;;;;;;8.73;7.93;;;7.60;1.00;;;;;;5052957;28;20475;-65
2022/11/17 04:46:34;;;;;;;9.23;8.20;;;7.40;1.00;;;;;;5052408;28;20405;-65
2022/11/17 04:49:03;;;;;;;11.30;8.80;;;7.50;1.00;;;;;;5052654;28;20409;-64
2022/11/17 04:51:30;;;;;;;9.63;8.30;;;7.50;1.00;;;;;;5051178;28;20414;-65
2022/11/17 04:53:56;;;;;;;10.80;8.47;;;7.50;1.00;;;;;;5050540;28;21035;-65
2022/11/17 04:56:23;;;;;;;10.67;9.53;;;7.40;1.00;;;;;;5052253;28;20558;-65
2022/11/17 04:58:49;;;;;;;12.03;10.60;;;7.40;1.00;;;;;;5052660;28;20689;-65
2022/11/17 05:01:17;;;;;;;15.70;9.53;;;7.40;1.00;;;;;;5038667;28;20887;-65
2022/11/17 05:03:53;;;;;;;9.60;8.67;;;7.50;1.00;;;;;;5032099;28;21075;-65
2022/11/17 05:06:22;;;;;;;12.37;10.03;;;7.70;1.00;;;;;;5031701;28;20910;-65
2022/11/17 05:08:49;;;;;;;11.10;8.80;;;7.80;1.00;;;;;;5032201;28;21097;-64
2022/11/17 05:14:01;;;;;;;8.60;7.80;;;7.70;1.00;;;;;;5032321;28;20444;-62
2022/11/17 05:19:16;;;;;;;9.80;8.10;;;7.80;1.00;;;;;;5032304;28;20504;-65
2022/11/17 05:21:42;;;;;;;13.10;8.80;;;7.80;1.00;;;;;;5030968;28;20468;-64
2022/11/17 05:24:08;;;;;;;9.50;8.50;;;7.90;1.00;;;;;;5032339;28;20430;-64
2022/11/17 05:26:36;;;;;;;9.63;8.67;;;8.00;1.00;;;;;;5032203;28;20171;-64
2022/11/17 05:29:04;;;;;;;8.83;7.93;;;8.20;1.00;;;;;;5032859;28;20278;-64
2022/11/17 05:31:31;;;;;;;9.23;8.20;;;8.20;1.00;;;;;;5031039;28;20437;-63
2022/11/17 05:33:57;;;;;;;12.03;9.43;;;8.10;1.00;;;;;;5032399;28;20474;-64
2022/11/17 05:36:24;;;;;;;9.27;8.37;;;8.20;1.00;;;;;;5031264;28;20428;-64
2022/11/17 05:38:51;;;;;;;8.33;7.13;;;8.20;1.00;;;;;;5031431;28;20580;-64
2022/11/17 05:41:18;;;;;;;9.30;8.40;;;8.10;1.00;;;;;;5030663;28;20921;-64
2022/11/17 05:43:44;;;;;;;10.77;8.83;;;8.10;1.00;;;;;;5031425;28;20410;-64
2022/11/17 05:46:10;;;;;;;8.03;7.33;;;8.00;1.00;;;;;;5031459;28;20456;-63
2022/11/17 05:48:36;;;;;;;9.10;8.00;;;8.00;1.00;;;;;;5030989;28;20450;-64
2022/11/17 05:51:02;;;;;;;8.43;7.63;;;8.20;1.00;;;;;;5028716;28;20461;-62
2022/11/17 05:53:28;;;;;;;9.10;8.10;;;8.30;1.00;;;;;;5028500;28;20489;-64
2022/11/17 05:56:29;;;;;;;11.20;7.50;;;8.20;1.00;;;;;;5031040;28;20196;-65
2022/11/17 05:59:05;;;;;;;10.80;9.77;;;8.30;1.00;;;;;;5011072;28;20474;-65
2022/11/17 06:01:32;;;;;;;12.90;8.77;;;8.40;1.00;;;;;;5015304;28;20469;-64
2022/11/17 06:04:02;;;;;;;7.40;6.70;;;8.40;1.00;;;;;;5011273;28;20772;-63
2022/11/17 06:06:28;;;;;;;11.83;8.00;;;8.40;1.00;;;;;;5021688;28;20406;-65
2022/11/17 06:08:55;;;;;;;10.57;7.70;;;8.50;1.00;;;;;;5030299;28;20509;-64
2022/11/17 06:11:20;;;;;;;12.20;7.97;;;8.60;1.00;;;;;;5030229;28;20540;-64
2022/11/17 06:13:46;;;;;;;21.03;8.33;;;8.60;1.00;;;;;;5031592;28;20410;-64
2022/11/17 06:16:17;;;;;;;18.07;8.60;;;8.60;1.00;;;;;;5030859;28;20203;-65
2022/11/17 06:18:51;;;;;;;18.80;8.63;;;8.60;1.00;;;;;;5030397;28;20656;-64
2022/11/17 06:21:17;;;;;;;12.83;7.80;;;8.70;1.00;;;;;;5027175;28;20479;-64
2022/11/17 06:23:45;;;;;;;18.93;8.70;;;8.70;1.00;;;;;;5027338;28;20495;-64
2022/11/17 06:26:12;;;;;;;21.93;8.57;;;8.80;1.00;;;;;;5027686;28;20198;-64
2022/11/17 06:28:39;;;;;;;14.13;8.40;;;8.80;1.00;;;;;;5027796;28;20449;-64
2022/11/17 06:31:06;;;;;;;10.67;8.07;;;8.70;1.00;;;;;;5027007;28;20938;-64
2022/11/17 06:33:42;;;;;;;17.40;7.77;;;8.60;1.00;;;;;;5026567;28;20429;-64
2022/11/17 06:36:08;;;;;;;8.10;7.30;;;8.50;1.00;;;;;;5025572;28;20926;-64
2022/11/17 06:38:35;;;;;;;10.83;8.30;;;8.30;1.00;;;;;;5024763;28;20557;-64
2022/11/17 06:41:04;;;;;;;23.40;9.03;;;8.30;1.00;;;;;;5025289;28;20951;-65
2022/11/17 06:43:31;;;;;;;12.73;8.20;;;8.30;1.00;;;;;;5016941;28;20418;-64
2022/11/17 06:46:03;;;;;;;16.13;9.73;;;8.40;1.00;;;;;;5020413;28;20434;-64
2022/11/17 06:48:29;;;;;;;15.60;10.10;;;8.40;1.00;;;;;;5017310;28;20520;-63
2022/11/17 06:50:55;;;;;;;13.87;8.47;;;8.50;1.00;;;;;;5025209;28;20430;-64
2022/11/17 06:53:24;;;;;;;21.67;9.37;;;8.60;1.00;;;;;;5022162;28;20760;-64
2022/11/17 06:55:58;;;;;;;10.40;7.97;;;8.60;1.00;;;;;;5023345;28;20454;-65
2022/11/17 06:58:24;;;;;;;10.23;6.60;;;8.50;1.00;;;;;;5015429;28;20503;-63
2022/11/17 07:00:50;;;;;;;7.57;6.83;;;8.40;1.00;;;;;;5024588;28;20426;-65
2022/11/17 07:03:15;;;;;;;7.23;6.50;;;8.30;1.00;;;;;;5024715;28;20176;-65
2022/11/17 07:05:41;;;;;;;12.17;7.00;;;8.20;1.00;;;;;;5019578;28;21561;-64
2022/11/17 07:08:07;;;;;;;11.90;7.67;;;8.20;1.00;;;;;;5025055;28;20171;-64
2022/11/17 07:10:34;;;;;;;8.50;7.60;;;8.30;1.00;;;;;;5018493;28;20172;-64
2022/11/17 07:13:00;;;;;;;20.57;8.93;;;8.40;1.00;;;;;;5027938;28;20399;-64
2022/11/17 07:15:26;;;;;;;12.60;6.80;;;8.50;1.00;;;;;;5027574;28;20427;-64
2022/11/17 07:17:52;;;;;;;10.43;7.20;;;8.50;1.00;;;;;;5027438;28;20538;-64
2022/11/17 07:20:18;;;;;;;13.13;6.90;;;8.50;1.00;;;;;;5025691;28;20275;-64
2022/11/17 07:22:44;;;;;;;39.93;9.50;;;8.50;1.00;;;;;;5026789;28;20203;-64
2022/11/17 07:25:10;;;;;;;15.57;8.93;;;8.60;1.00;;;;;;5025260;28;20543;-64
2022/11/17 07:27:36;;;;;;;22.67;9.33;;;8.70;1.00;;;;;;5020334;28;20172;-64
2022/11/17 07:30:04;;;;;;;25.17;8.33;;;8.70;1.00;;;;;;5034453;28;20502;-64
2022/11/17 07:32:32;;;;;;;51.33;9.43;;;8.80;1.00;;;;;;5031526;28;20180;-64
2022/11/17 07:34:58;;;;;;;7.23;5.93;;;8.80;1.00;;;;;;5026786;28;20460;-64
2022/11/17 07:37:24;;;;;;;10.50;6.43;;;10.40;1.00;;;;;;5026225;28;20484;-64
2022/11/17 07:39:50;;;;;;;6.77;6.17;;;11.30;1.00;;;;;;5025852;28;20462;-65
2022/11/17 07:42:15;;;;;;;9.90;6.87;;;11.70;1.00;;;;;;5021378;28;20229;-66
2022/11/17 07:44:42;;;;;;;13.00;7.57;;;10.70;1.00;;;;;;5022059;28;20409;-66
2022/11/17 07:47:07;;;;;;;7.90;6.47;;;10.20;1.00;;;;;;5024481;28;20226;-67
2022/11/17 07:49:33;;;;;;;14.90;7.50;;;9.70;99.90;;;;;;5026331;28;21333;-67
2022/11/17 07:51:59;;;;;;;12.03;7.80;;;9.50;1.00;;;;;;5025369;28;20179;-67
2022/11/17 07:54:25;;;;;;;21.70;9.43;;;9.40;1.00;;;;;;5029212;28;20230;-67
2022/11/17 07:56:51;;;;;;;14.27;8.03;;;9.40;1.00;;;;;;5027675;28;20454;-66
2022/11/17 07:59:16;;;;;;;7.40;6.70;;;9.30;1.00;;;;;;5029172;28;20203;-65
2022/11/17 08:01:42;;;;;;;14.20;7.23;;;9.30;1.00;;;;;;5013383;28;20187;-66
2022/11/17 08:04:08;;;;;;;12.30;7.37;;;9.30;1.00;;;;;;5027763;28;20218;-67
2022/11/17 08:06:35;;;;;;;12.40;7.90;;;9.40;1.00;;;;;;5027755;28;20257;-65
2022/11/17 08:09:01;;;;;;;13.83;8.40;;;9.40;1.00;;;;;;5029515;28;20172;-67
2022/11/17 08:11:27;;;;;;;10.40;7.80;;;9.40;1.00;;;;;;5027239;28;20934;-66
2022/11/17 08:13:53;;;;;;;10.33;7.93;;;9.60;1.00;;;;;;5028759;28;20640;-66
2022/11/17 08:16:19;;;;;;;10.43;8.03;;;9.70;1.00;;;;;;5027673;28;20663;-66
2022/11/17 08:18:45;;;;;;;8.87;7.40;;;9.80;1.00;;;;;;5022379;28;20220;-66
2022/11/17 08:21:13;;;;;;;13.13;7.37;;;9.80;1.00;;;;;;5020564;28;20517;-66
2022/11/17 08:23:42;;;;;;;10.93;8.27;;;9.70;1.00;;;;;;5028837;28;20199;-65
2022/11/17 08:26:10;;;;;;;9.30;8.40;;;9.80;1.00;;;;;;5028815;28;20898;-65
2022/11/17 08:28:36;;;;;;;7.10;6.40;;;9.60;1.00;;;;;;5029131;28;20970;-66
2022/11/17 08:31:03;;;;;;;7.80;6.77;;;9.70;1.00;;;;;;5028182;28;20460;-66
2022/11/17 08:33:29;;;;;;;13.63;6.93;;;9.60;1.00;;;;;;5029199;28;20422;-66
2022/11/17 08:35:59;;;;;;;7.13;6.30;;;9.70;1.00;;;;;;5028318;28;20460;-65
2022/11/17 08:38:28;;;;;;;14.10;6.77;;;9.80;1.00;;;;;;5021350;28;20779;-66
2022/11/17 08:41:01;;;;;;;32.27;8.80;;;9.80;1.00;;;;;;5008877;28;20802;-65
2022/11/17 08:43:27;;;;;;;16.17;7.10;;;9.90;1.00;;;;;;5009932;28;20414;-65
2022/11/17 08:45:53;;;;;;;10.10;7.47;;;9.90;1.00;;;;;;5010681;28;21219;-65
2022/11/17 08:48:19;;;;;;;16.50;6.80;;;9.90;1.00;;;;;;5013269;28;20191;-65
2022/11/17 08:50:44;;;;;;;12.00;7.10;;;10.00;1.00;;;;;;5012858;28;20168;-65
2022/11/17 08:53:15;;;;;;;24.13;8.23;;;10.00;1.00;;;;;;5012613;28;20426;-64
2022/11/17 08:55:41;;;;;;;15.03;7.90;;;10.00;1.00;;;;;;5013337;28;20203;-66
2022/11/17 08:58:08;;;;;;;16.03;8.37;;;10.00;1.00;;;;;;5012500;28;20442;-64
2022/11/17 09:00:34;;;;;;;19.53;9.10;;;10.00;1.00;;;;;;5018669;28;20414;-67
2022/11/17 09:03:00;;;;;;;14.73;9.30;;;10.10;1.00;;;;;;5032370;28;20511;-67
2022/11/17 09:05:27;;;;;;;17.30;8.87;;;10.30;1.00;;;;;;5032594;28;20431;-66
2022/11/17 09:07:52;;;;;;;32.40;9.23;;;10.40;1.00;;;;;;5031924;28;20782;-65
2022/11/17 09:10:18;;;;;;;32.97;11.53;;;10.30;1.00;;;;;;5031647;28;20421;-66
2022/11/17 09:12:44;;;;;;;35.07;11.47;;;10.40;1.00;;;;;;5030354;28;20179;-67
2022/11/17 09:15:10;;;;;;;21.77;9.07;;;10.40;1.00;;;;;;5032177;28;20215;-67
2022/11/17 09:17:35;;;;;;;13.73;8.20;;;10.40;1.00;;;;;;5032189;28;20276;-67
2022/11/17 09:20:01;;;;;;;26.03;8.40;;;10.30;1.00;;;;;;5031993;28;20203;-66
2022/11/17 09:22:27;;;;;;;14.70;7.17;;;10.30;1.00;;;;;;5036913;28;20163;-66
2022/11/17 09:24:52;;;;;;;10.17;7.80;;;10.30;1.00;;;;;;5051756;28;20709;-65
2022/11/17 09:27:18;;;;;;;20.93;8.30;;;10.20;1.00;;;;;;5052365;28;20588;-65
2022/11/17 09:29:44;;;;;;;10.10;6.17;;;10.30;1.00;;;;;;5052364;28;20265;-65
2022/11/17 09:32:10;;;;;;;8.13;6.30;;;10.20;1.00;;;;;;5050978;28;20260;-65
2022/11/17 09:34:35;;;;;;;6.37;5.13;;;10.20;1.00;;;;;;5051719;28;20642;-65
2022/11/17 09:37:01;;;;;;;9.50;5.73;;;10.20;1.00;;;;;;5051308;28;20248;-65
2022/11/17 09:39:26;;;;;;;6.60;5.33;;;10.20;1.00;;;;;;5052075;28;20203;-65
2022/11/17 09:41:55;;;;;;;5.67;5.07;;;10.30;1.00;;;;;;5051055;28;20195;-64
2022/11/17 09:44:40;;;;;;;6.80;5.30;;;10.30;1.00;;;;;;5052255;28;20191;-66
2022/11/17 09:47:30;;;;;;;9.30;5.20;;;10.30;1.00;;;;;;5053300;28;20773;-69
2022/11/17 09:50:23;;;;;;;6.30;5.70;;;10.40;1.00;;;;;;5053363;28;20406;-65
2022/11/17 09:53:19;;;;;;;9.43;5.33;;;10.40;1.00;;;;;;5049151;28;20428;-67
2022/11/17 09:55:50;;;;;;;28.20;9.13;;;10.40;1.00;;;;;;5051803;28;21003;-65
2022/11/17 09:58:41;;;;;;;9.63;5.33;;;10.40;1.00;;;;;;5053233;28;20452;-64
2022/11/17 10:01:20;;;;;;;7.20;5.73;;;10.50;1.00;;;;;;5031539;28;20463;-66
2022/11/17 10:03:48;;;;;;;13.17;6.30;;;10.50;1.00;;;;;;5032521;28;20429;-64
2022/11/17 10:06:20;;;;;;;8.87;6.07;;;10.40;1.00;;;;;;5031914;28;20493;-65
2022/11/17 10:09:00;;;;;;;11.07;6.97;;;10.50;1.00;;;;;;5032651;28;20491;-64
2022/11/17 10:11:31;;;;;;;10.70;6.47;;;10.50;1.00;;;;;;5030693;28;20819;-65
2022/11/17 10:14:08;;;;;;;8.70;6.10;;;10.60;1.00;;;;;;5032600;28;20485;-65
2022/11/17 10:16:36;;;;;;;6.97;6.03;;;10.70;1.00;;;;;;5025886;28;20422;-64
2022/11/17 10:19:13;;;;;;;6.73;5.90;;;10.90;1.00;;;;;;5027030;28;20475;-66
2022/11/17 10:21:39;;;;;;;6.87;5.73;;;10.90;1.00;;;;;;5028164;28;20417;-65
2022/11/17 10:24:05;;;;;;;24.63;6.00;;;10.90;1.00;;;;;;5029316;28;21153;-63
2022/11/17 10:26:44;;;;;;;12.53;5.60;;;10.90;1.00;;;;;;5029228;28;20188;-66
2022/11/17 10:29:12;;;;;;;8.50;5.70;;;10.90;1.00;;;;;;5029313;28;21118;-64
2022/11/17 10:31:44;;;;;;;11.60;5.27;;;11.00;1.00;;;;;;5028845;28;20926;-66
2022/11/17 10:34:11;;;;;;;22.53;6.50;;;11.00;1.00;;;;;;5029926;28;20937;-64
2022/11/17 10:36:46;;;;;;;18.77;6.17;;;11.10;1.00;;;;;;5029444;28;20497;-65
2022/11/17 10:39:37;;;;;;;11.00;5.23;;;11.20;1.00;;;;;;5025216;28;20460;-65
2022/11/17 10:42:21;;;;;;;27.23;6.93;;;11.20;1.00;;;;;;5009881;28;20957;-65
2022/11/17 10:44:53;;;;;;;39.00;8.90;;;11.40;1.00;;;;;;5023100;28;20820;-63
2022/11/17 10:47:25;;;;;;;14.50;5.63;;;11.40;1.00;;;;;;5029384;28;20437;-66
2022/11/17 10:50:19;;;;;;;15.03;5.47;;;11.30;1.00;;;;;;5020619;28;20469;-64
2022/11/17 10:52:45;;;;;;;9.73;6.07;;;11.30;1.00;;;;;;5028302;28;20442;-65
2022/11/17 10:55:18;;;;;;;15.40;5.33;;;11.30;1.00;;;;;;5029446;28;20453;-66
2022/11/17 10:57:48;;;;;;;13.17;4.87;;;11.40;1.00;;;;;;5030448;28;20409;-66
2022/11/17 11:00:31;;;;;;;13.27;5.70;;;11.50;1.00;;;;;;5027955;28;20487;-66
2022/11/17 11:03:03;;;;;;;19.77;4.93;;;11.60;1.00;;;;;;5022813;28;20412;-65
2022/11/17 11:05:28;;;;;;;8.97;4.07;;;11.90;1.00;;;;;;5028804;28;20461;-65
2022/11/17 11:08:18;;;;;;;24.40;5.80;;;12.30;1.00;;;;;;5029943;28;20410;-66
2022/11/17 11:10:47;;;;;;;5.13;3.33;;;12.60;99.90;;;;;;5028987;28;20171;-66
2022/11/17 11:13:50;;;;;;;4.53;2.70;;;12.80;99.90;;;;;;5028261;28;20466;-67
2022/11/17 11:16:16;;;;;;;15.73;4.30;;;13.10;1.00;;;;;;4983120;28;20448;-66
2022/11/17 11:18:41;;;;;;;19.73;4.50;;;13.50;1.00;;;;;;5029854;28;20446;-66
2022/11/17 11:21:23;;;;;;;12.47;3.03;;;13.60;1.00;;;;;;5028744;28;20170;-66
2022/11/17 11:24:00;;;;;;;7.30;3.43;;;13.60;1.00;;;;;;5029981;28;20183;-66
2022/11/17 11:26:48;;;;;;;6.00;1.87;;;13.60;99.90;;;;;;5029912;28;20796;-66
2022/11/17 11:29:32;;;;;;;9.47;1.60;;;13.90;1.00;;;;;;5029368;28;20448;-66
2022/11/17 11:32:13;;;;;;;3.10;1.40;;;14.20;99.90;;;;;;5029337;28;20406;-66
2022/11/17 11:35:11;;;;;;;7.50;2.03;;;14.40;1.00;;;;;;5029660;28;20949;-66
2022/11/17 11:37:49;;;;;;;5.20;1.30;;;14.50;1.00;;;;;;5028868;28;20507;-66
2022/11/17 11:40:24;;;;;;;4.43;1.10;;;14.60;1.00;;;;;;5029389;28;20453;-67
2022/11/17 11:43:27;;;;;;;18.27;2.37;;;14.70;1.00;;;;;;5028879;28;20977;-67
2022/11/17 11:46:04;;;;;;;5.90;1.33;;;14.70;1.00;;;;;;5009964;28;20450;-67
2022/11/17 11:48:38;;;;;;;10.80;2.00;;;14.70;1.00;;;;;;5009945;28;20438;-67
2022/11/17 11:51:15;;;;;;;7.10;1.97;;;14.70;1.00;;;;;;5025430;28;20517;-67
2022/11/17 11:54:13;;;;;;;13.33;3.93;;;14.80;1.00;;;;;;5027633;28;20481;-66
2022/11/17 11:56:43;;;;;;;21.23;3.90;;;14.70;1.00;;;;;;5028540;28;20489;-66
2022/11/17 11:59:18;;;;;;;22.33;4.43;;;14.80;1.00;;;;;;5029902;28;20454;-67
2022/11/17 12:01:59;;;;;;;9.37;3.03;;;14.80;1.00;;;;;;5029136;28;20460;-69
2022/11/17 12:04:51;;;;;;;5.33;1.97;;;14.80;1.00;;;;;;5028866;28;20595;-65
2022/11/17 12:07:22;;;;;;;5.67;1.70;;;15.10;99.90;;;;;;5013142;28;20430;-66
2022/11/17 12:09:58;;;;;;;15.17;2.00;;;14.90;1.00;;;;;;5028045;28;20454;-66
2022/11/17 12:12:32;;;;;;;6.70;1.53;;;15.00;1.00;;;;;;5028597;28;20440;-68
2022/11/17 12:15:28;;;;;;;13.83;2.13;;;14.90;1.00;;;;;;5029265;28;20456;-67
2022/11/17 12:17:57;;;;;;;8.90;2.13;;;14.80;1.00;;;;;;5010075;28;20503;-67
2022/11/17 12:20:37;;;;;;;17.43;2.70;;;15.10;1.00;;;;;;5024644;28;20450;-67
2022/11/17 12:23:24;;;;;;;24.33;3.40;;;14.90;1.00;;;;;;5031364;28;20418;-66
2022/11/17 12:25:53;;;;;;;21.53;3.00;;;14.90;1.00;;;;;;5032692;28;20504;-66
2022/11/17 12:28:30;;;;;;;20.67;3.00;;;14.80;1.00;;;;;;5032268;28;20425;-66
2022/11/17 12:31:10;;;;;;;14.27;4.00;;;14.80;1.00;;;;;;5012109;28;20493;-66
2022/11/17 12:33:59;;;;;;;11.10;2.40;;;14.80;1.00;;;;;;5014658;28;20772;-66
2022/11/17 12:36:30;;;;;;;14.23;3.60;;;14.80;1.00;;;;;;5015531;28;20457;-65
2022/11/17 12:38:57;;;;;;;21.73;3.30;;;14.80;1.00;;;;;;5022461;28;20551;-67
2022/11/17 12:41:47;;;;;;;15.07;2.10;;;14.90;1.00;;;;;;5023975;28;20927;-66
2022/11/17 12:44:42;;;;;;;15.20;3.23;;;14.90;99.90;;;;;;5024014;28;20518;-65
2022/11/17 12:47:27;;;;;;;9.63;2.77;;;14.90;99.90;;;;;;5018087;28;20407;-66
2022/11/17 12:50:05;;;;;;;3.83;1.77;;;14.80;99.90;;;;;;5023858;28;20438;-66
2022/11/17 12:52:34;;;;;;;13.60;2.30;;;14.80;99.90;;;;;;5031239;28;20446;-66
2022/11/17 12:55:20;;;;;;;5.13;1.60;;;14.90;99.90;;;;;;5031888;28;20454;-66
2022/11/17 12:57:51;;;;;;;11.57;1.90;;;14.90;99.90;;;;;;5028189;28;20513;-66
2022/11/17 13:00:23;;;;;;;11.73;2.30;;;14.80;99.90;;;;;;5030750;28;20497;-67
2022/11/17 13:03:07;;;;;;;28.50;3.47;;;14.80;99.90;;;;;;5031364;28;20988;-66
2022/11/17 13:05:34;;;;;;;4.67;1.80;;;14.80;99.90;;;;;;5030488;28;20826;-66
2022/11/17 13:08:21;;;;;;;18.53;3.23;;;14.80;99.90;;;;;;5030930;28;20422;-66
2022/11/17 13:10:47;;;;;;;9.33;1.60;;;14.70;99.90;;;;;;5031044;28;20450;-66
2022/11/17 13:13:22;;;;;;;14.43;1.73;;;14.70;99.90;;;;;;5031563;28;20946;-66
2022/11/17 13:15:57;;;;;;;16.67;3.20;;;14.80;99.90;;;;;;5023790;28;20461;-66
2022/11/17 13:18:36;;;;;;;12.27;2.43;;;14.70;99.90;;;;;;5031014;28;20952;-66
2022/11/17 13:21:03;;;;;;;4.70;1.73;;;14.60;99.90;;;;;;5023784;28;20509;-66
2022/11/17 13:23:31;;;;;;;5.33;2.07;;;14.60;99.90;;;;;;5031756;28;20472;-66
2022/11/17 13:26:18;;;;;;;4.47;1.67;;;14.60;99.90;;;;;;5030392;28;20465;-66
2022/11/17 13:28:45;;;;;;;14.97;1.43;;;14.60;99.90;;;;;;5032012;28;21089;-66
2022/11/17 13:31:19;;;;;;;9.57;2.87;;;14.50;99.90;;;;;;5030437;28;20791;-66
2022/11/17 13:34:03;;;;;;;6.37;1.80;;;14.50;99.90;;;;;;5031294;28;20421;-66
2022/11/17 13:36:29;;;;;;;4.50;1.77;;;14.50;99.90;;;;;;5030563;28;20446;-66
2022/11/17 13:39:00;;;;;;;17.33;2.90;;;14.50;99.90;;;;;;5029273;28;20526;-66
2022/11/17 13:41:36;;;;;;;8.83;2.40;;;14.50;99.90;;;;;;5030208;28;20234;-66
2022/11/17 13:44:03;;;;;;;11.77;2.57;;;14.60;99.90;;;;;;5031036;28;20507;-66